sensor_id;sensor_type;location;lat;lon;timestamp;pressure;altitude;pressure_sealevel;temperature;humidity
18918;BME280;9591;52.742;13.650;2023-07-29T00:00:24;100311.88;;;20.28;100.00
18918;BME280;9591;52.742;13.650;2023-07-29T00:03:15;100318.00;;;20.30;100.00
18918;BME280;9591;52.742;13.650;2023-07-29T00:06:02;100295.38;;;20.22;100.00
18918;BME280;9591;52.742;13.650;2023-07-29T00:08:51;100309.06;;;20.19;100.00
18918;BME280;9591;52.742;13.650;2023-07-29T00:11:38;100307.00;;;20.22;100.00
18918;BME280;9591;52.742;13.650;2023-07-29T00:14:26;100307.59;;;20.15;100.00
18918;BME280;9591;52.742;13.650;2023-07-29T00:17:13;100303.56;;;20.09;100.00
18918;BME280;9591;52.742;13.650;2023-07-29T00:20:01;100293.03;;;20.06;100.00
18918;BME280;9591;52.742;13.650;2023-07-29T00:22:51;100297.56;;;20.06;100.00
18918;BME280;9591;52.742;13.650;2023-07-29T00:25:40;100295.22;;;20.01;100.00
18918;BME280;9591;52.742;13.650;2023-07-29T00:28:26;100298.78;;;19.90;100.00
18918;BME280;9591;52.742;13.650;2023-07-29T00:31:13;100294.38;;;19.89;100.00
18918;BME280;9591;52.742;13.650;2023-07-29T00:34:00;100290.59;;;19.81;100.00
18918;BME280;9591;52.742;13.650;2023-07-29T00:36:49;100291.06;;;19.75;100.00
18918;BME280;9591;52.742;13.650;2023-07-29T00:39:36;100288.75;;;19.81;100.00
18918;BME280;9591;52.742;13.650;2023-07-29T00:42:23;100286.19;;;19.80;100.00
18918;BME280;9591;52.742;13.650;2023-07-29T00:45:10;100287.03;;;19.80;100.00
18918;BME280;9591;52.742;13.650;2023-07-29T00:47:58;100289.09;;;19.77;100.00
18918;BME280;9591;52.742;13.650;2023-07-29T00:50:45;100282.03;;;19.76;100.00
18918;BME280;9591;52.742;13.650;2023-07-29T00:53:33;100285.56;;;19.76;100.00
18918;BME280;9591;52.742;13.650;2023-07-29T00:56:20;100281.28;;;19.74;100.00
18918;BME280;9591;52.742;13.650;2023-07-29T00:59:07;100280.13;;;19.54;100.00
18918;BME280;9591;52.742;13.650;2023-07-29T01:01:56;100269.25;;;19.55;100.00
18918;BME280;9591;52.742;13.650;2023-07-29T01:04:45;100267.00;;;19.49;100.00
18918;BME280;9591;52.742;13.650;2023-07-29T01:07:46;100268.97;;;19.47;100.00
18918;BME280;9591;52.742;13.650;2023-07-29T01:10:45;100279.03;;;19.56;100.00
18918;BME280;9591;52.742;13.650;2023-07-29T01:13:41;100274.56;;;19.44;100.00
18918;BME280;9591;52.742;13.650;2023-07-29T01:16:38;100282.81;;;19.54;100.00
18918;BME280;9591;52.742;13.650;2023-07-29T01:19:42;100276.63;;;19.64;100.00
18918;BME280;9591;52.742;13.650;2023-07-29T01:22:32;100269.28;;;19.67;100.00
18918;BME280;9591;52.742;13.650;2023-07-29T01:25:21;100273.19;;;19.62;100.00
18918;BME280;9591;52.742;13.650;2023-07-29T01:28:07;100275.38;;;19.57;100.00
18918;BME280;9591;52.742;13.650;2023-07-29T01:31:10;100274.22;;;19.49;100.00
18918;BME280;9591;52.742;13.650;2023-07-29T01:34:04;100271.50;;;19.38;100.00
18918;BME280;9591;52.742;13.650;2023-07-29T01:36:54;100269.00;;;19.23;100.00
18918;BME280;9591;52.742;13.650;2023-07-29T01:39:49;100262.47;;;19.15;100.00
18918;BME280;9591;52.742;13.650;2023-07-29T01:42:37;100263.56;;;19.12;100.00
18918;BME280;9591;52.742;13.650;2023-07-29T01:45:25;100266.22;;;19.01;100.00
18918;BME280;9591;52.742;13.650;2023-07-29T01:48:12;100268.50;;;18.94;100.00
18918;BME280;9591;52.742;13.650;2023-07-29T01:50:59;100269.94;;;18.87;100.00
18918;BME280;9591;52.742;13.650;2023-07-29T01:53:46;100278.72;;;18.89;100.00
18918;BME280;9591;52.742;13.650;2023-07-29T01:56:33;100272.72;;;18.86;100.00
18918;BME280;9591;52.742;13.650;2023-07-29T01:59:21;100273.38;;;18.89;100.00
18918;BME280;9591;52.742;13.650;2023-07-29T02:02:08;100272.53;;;18.76;100.00
18918;BME280;9591;52.742;13.650;2023-07-29T02:04:55;100280.81;;;18.73;100.00
18918;BME280;9591;52.742;13.650;2023-07-29T02:07:42;100274.19;;;18.66;100.00
18918;BME280;9591;52.742;13.650;2023-07-29T02:10:29;100279.84;;;18.74;100.00
18918;BME280;9591;52.742;13.650;2023-07-29T02:13:16;100275.75;;;18.81;100.00
18918;BME280;9591;52.742;13.650;2023-07-29T02:16:04;100278.84;;;18.88;100.00
18918;BME280;9591;52.742;13.650;2023-07-29T02:18:51;100284.19;;;18.88;100.00
18918;BME280;9591;52.742;13.650;2023-07-29T02:21:41;100285.69;;;18.92;100.00
18918;BME280;9591;52.742;13.650;2023-07-29T02:24:28;100282.44;;;18.99;100.00
18918;BME280;9591;52.742;13.650;2023-07-29T02:27:14;100281.06;;;18.94;100.00
18918;BME280;9591;52.742;13.650;2023-07-29T02:30:02;100279.97;;;18.96;100.00
18918;BME280;9591;52.742;13.650;2023-07-29T02:32:50;100274.72;;;18.95;100.00
18918;BME280;9591;52.742;13.650;2023-07-29T02:35:37;100258.34;;;18.87;100.00
18918;BME280;9591;52.742;13.650;2023-07-29T02:38:24;100277.00;;;18.88;100.00
18918;BME280;9591;52.742;13.650;2023-07-29T02:41:11;100274.00;;;18.93;100.00
18918;BME280;9591;52.742;13.650;2023-07-29T02:43:58;100270.91;;;18.86;100.00
18918;BME280;9591;52.742;13.650;2023-07-29T02:46:45;100272.09;;;18.82;100.00
18918;BME280;9591;52.742;13.650;2023-07-29T02:49:33;100270.59;;;18.78;100.00
18918;BME280;9591;52.742;13.650;2023-07-29T02:52:20;100264.38;;;18.78;100.00
18918;BME280;9591;52.742;13.650;2023-07-29T02:55:07;100270.72;;;18.77;100.00
18918;BME280;9591;52.742;13.650;2023-07-29T02:57:54;100272.44;;;18.78;100.00
18918;BME280;9591;52.742;13.650;2023-07-29T03:00:41;100274.38;;;18.76;100.00
18918;BME280;9591;52.742;13.650;2023-07-29T03:03:29;100284.38;;;18.61;100.00
18918;BME280;9591;52.742;13.650;2023-07-29T03:06:18;100260.38;;;18.47;100.00
18918;BME280;9591;52.742;13.650;2023-07-29T03:09:05;100285.25;;;18.61;100.00
18918;BME280;9591;52.742;13.650;2023-07-29T03:11:52;100281.03;;;18.57;100.00
18918;BME280;9591;52.742;13.650;2023-07-29T03:14:40;100281.47;;;18.64;100.00
18918;BME280;9591;52.742;13.650;2023-07-29T03:17:27;100274.06;;;18.67;100.00
18918;BME280;9591;52.742;13.650;2023-07-29T03:20:14;100275.69;;;18.70;100.00
18918;BME280;9591;52.742;13.650;2023-07-29T03:23:02;100277.69;;;18.79;100.00
18918;BME280;9591;52.742;13.650;2023-07-29T03:25:49;100266.72;;;18.82;100.00
18918;BME280;9591;52.742;13.650;2023-07-29T03:28:38;100232.88;;;18.56;100.00
18918;BME280;9591;52.742;13.650;2023-07-29T03:31:24;100249.72;;;18.58;100.00
18918;BME280;9591;52.742;13.650;2023-07-29T03:34:11;100245.03;;;18.61;100.00
18918;BME280;9591;52.742;13.650;2023-07-29T03:37:01;100264.19;;;18.55;100.00
18918;BME280;9591;52.742;13.650;2023-07-29T03:39:49;100259.91;;;18.53;100.00
18918;BME280;9591;52.742;13.650;2023-07-29T03:42:37;100264.09;;;18.57;100.00
18918;BME280;9591;52.742;13.650;2023-07-29T03:45:24;100262.72;;;18.51;100.00
18918;BME280;9591;52.742;13.650;2023-07-29T03:48:11;100265.50;;;18.50;100.00
18918;BME280;9591;52.742;13.650;2023-07-29T03:50:58;100259.69;;;18.56;100.00
18918;BME280;9591;52.742;13.650;2023-07-29T03:53:45;100259.28;;;18.62;100.00
18918;BME280;9591;52.742;13.650;2023-07-29T03:56:33;100260.78;;;18.66;100.00
18918;BME280;9591;52.742;13.650;2023-07-29T03:59:22;100262.69;;;18.77;100.00
18918;BME280;9591;52.742;13.650;2023-07-29T04:02:09;100259.44;;;18.84;100.00
18918;BME280;9591;52.742;13.650;2023-07-29T04:04:56;100258.16;;;18.77;100.00
18918;BME280;9591;52.742;13.650;2023-07-29T04:07:43;100262.56;;;18.78;100.00
18918;BME280;9591;52.742;13.650;2023-07-29T04:10:30;100261.38;;;18.82;100.00
18918;BME280;9591;52.742;13.650;2023-07-29T04:13:18;100272.72;;;18.86;100.00
18918;BME280;9591;52.742;13.650;2023-07-29T04:16:05;100267.03;;;18.90;100.00
18918;BME280;9591;52.742;13.650;2023-07-29T04:18:52;100255.72;;;18.98;100.00
18918;BME280;9591;52.742;13.650;2023-07-29T04:21:39;100260.75;;;19.03;100.00
18918;BME280;9591;52.742;13.650;2023-07-29T04:24:26;100266.84;;;19.05;100.00
18918;BME280;9591;52.742;13.650;2023-07-29T04:27:13;100270.25;;;19.07;100.00
18918;BME280;9591;52.742;13.650;2023-07-29T04:30:01;100218.16;;;18.74;100.00
18918;BME280;9591;52.742;13.650;2023-07-29T04:32:48;100273.94;;;19.06;100.00
18918;BME280;9591;52.742;13.650;2023-07-29T04:35:35;100273.44;;;19.12;100.00
18918;BME280;9591;52.742;13.650;2023-07-29T04:38:26;100277.72;;;19.14;100.00
18918;BME280;9591;52.742;13.650;2023-07-29T04:41:12;100270.59;;;19.26;100.00
18918;BME280;9591;52.742;13.650;2023-07-29T04:43:59;100274.09;;;19.50;100.00
18918;BME280;9591;52.742;13.650;2023-07-29T04:46:47;100269.19;;;19.68;100.00
18918;BME280;9591;52.742;13.650;2023-07-29T04:49:34;100266.66;;;20.11;100.00
18918;BME280;9591;52.742;13.650;2023-07-29T04:52:21;100276.69;;;20.09;100.00
18918;BME280;9591;52.742;13.650;2023-07-29T04:55:08;100274.25;;;20.17;100.00
18918;BME280;9591;52.742;13.650;2023-07-29T04:57:55;100261.28;;;20.22;100.00
18918;BME280;9591;52.742;13.650;2023-07-29T05:00:42;100262.00;;;20.13;100.00
18918;BME280;9591;52.742;13.650;2023-07-29T05:03:30;100255.53;;;20.16;100.00
18918;BME280;9591;52.742;13.650;2023-07-29T05:06:17;100258.97;;;20.07;100.00
18918;BME280;9591;52.742;13.650;2023-07-29T05:09:14;100262.50;;;20.18;100.00
18918;BME280;9591;52.742;13.650;2023-07-29T05:12:02;100263.75;;;20.59;100.00
18918;BME280;9591;52.742;13.650;2023-07-29T05:14:49;100264.81;;;20.79;100.00
18918;BME280;9591;52.742;13.650;2023-07-29T05:17:36;100260.34;;;20.89;100.00
18918;BME280;9591;52.742;13.650;2023-07-29T05:20:24;100256.19;;;20.96;100.00
18918;BME280;9591;52.742;13.650;2023-07-29T05:23:11;100250.38;;;21.23;100.00
18918;BME280;9591;52.742;13.650;2023-07-29T05:25:58;100248.88;;;21.30;100.00
18918;BME280;9591;52.742;13.650;2023-07-29T05:28:45;100245.72;;;21.67;100.00
18918;BME280;9591;52.742;13.650;2023-07-29T05:31:32;100247.69;;;22.06;100.00
18918;BME280;9591;52.742;13.650;2023-07-29T05:34:19;100240.81;;;22.23;100.00
18918;BME280;9591;52.742;13.650;2023-07-29T05:37:08;100234.69;;;22.21;100.00
18918;BME280;9591;52.742;13.650;2023-07-29T05:39:55;100232.13;;;22.19;100.00
18918;BME280;9591;52.742;13.650;2023-07-29T05:42:42;100238.25;;;22.21;100.00
18918;BME280;9591;52.742;13.650;2023-07-29T05:45:30;100227.34;;;22.33;100.00
18918;BME280;9591;52.742;13.650;2023-07-29T05:48:19;100232.81;;;22.52;100.00
18918;BME280;9591;52.742;13.650;2023-07-29T05:51:06;100237.50;;;22.60;100.00
18918;BME280;9591;52.742;13.650;2023-07-29T05:53:55;100244.75;;;22.69;100.00
18918;BME280;9591;52.742;13.650;2023-07-29T05:56:42;100235.25;;;22.74;100.00
18918;BME280;9591;52.742;13.650;2023-07-29T05:59:29;100224.72;;;22.62;100.00
18918;BME280;9591;52.742;13.650;2023-07-29T06:02:15;100232.84;;;22.71;100.00
18918;BME280;9591;52.742;13.650;2023-07-29T06:05:03;100222.66;;;22.84;100.00
18918;BME280;9591;52.742;13.650;2023-07-29T06:07:51;100225.88;;;22.78;100.00
18918;BME280;9591;52.742;13.650;2023-07-29T06:10:40;100221.25;;;22.90;100.00
18918;BME280;9591;52.742;13.650;2023-07-29T06:13:27;100209.59;;;22.89;100.00
18918;BME280;9591;52.742;13.650;2023-07-29T06:16:18;100220.41;;;22.89;100.00
18918;BME280;9591;52.742;13.650;2023-07-29T06:19:05;100221.81;;;22.94;100.00
18918;BME280;9591;52.742;13.650;2023-07-29T06:21:55;100221.69;;;22.95;100.00
18918;BME280;9591;52.742;13.650;2023-07-29T06:24:41;100219.00;;;23.24;100.00
18918;BME280;9591;52.742;13.650;2023-07-29T06:27:30;100218.41;;;23.40;100.00
18918;BME280;9591;52.742;13.650;2023-07-29T06:30:18;100212.03;;;23.31;100.00
18918;BME280;9591;52.742;13.650;2023-07-29T06:33:07;100210.31;;;23.30;100.00
18918;BME280;9591;52.742;13.650;2023-07-29T06:35:57;100194.25;;;23.38;100.00
18918;BME280;9591;52.742;13.650;2023-07-29T06:38:45;100200.91;;;23.53;100.00
18918;BME280;9591;52.742;13.650;2023-07-29T06:41:33;100172.63;;;23.38;100.00
18918;BME280;9591;52.742;13.650;2023-07-29T06:44:23;100197.31;;;23.53;100.00
18918;BME280;9591;52.742;13.650;2023-07-29T06:47:11;100202.16;;;23.69;100.00
18918;BME280;9591;52.742;13.650;2023-07-29T06:50:00;100205.50;;;23.90;100.00
18918;BME280;9591;52.742;13.650;2023-07-29T06:52:47;100197.34;;;24.09;100.00
18918;BME280;9591;52.742;13.650;2023-07-29T06:55:35;100207.72;;;24.14;100.00
18918;BME280;9591;52.742;13.650;2023-07-29T06:58:23;100197.53;;;23.98;100.00
18918;BME280;9591;52.742;13.650;2023-07-29T07:01:12;100200.56;;;24.23;100.00
18918;BME280;9591;52.742;13.650;2023-07-29T07:03:59;100201.06;;;24.36;100.00
18918;BME280;9591;52.742;13.650;2023-07-29T07:06:46;100195.66;;;24.36;100.00
18918;BME280;9591;52.742;13.650;2023-07-29T07:09:33;100194.25;;;24.32;100.00
18918;BME280;9591;52.742;13.650;2023-07-29T07:12:20;100195.44;;;24.47;100.00
18918;BME280;9591;52.742;13.650;2023-07-29T07:15:08;100200.16;;;24.45;100.00
18918;BME280;9591;52.742;13.650;2023-07-29T07:17:57;100198.31;;;24.45;100.00
18918;BME280;9591;52.742;13.650;2023-07-29T07:20:47;100194.53;;;24.29;100.00
18918;BME280;9591;52.742;13.650;2023-07-29T07:23:34;100201.84;;;24.46;100.00
18918;BME280;9591;52.742;13.650;2023-07-29T07:26:21;100192.38;;;24.60;100.00
18918;BME280;9591;52.742;13.650;2023-07-29T07:29:08;100199.66;;;24.59;100.00
18918;BME280;9591;52.742;13.650;2023-07-29T07:31:56;100194.53;;;24.56;100.00
18918;BME280;9591;52.742;13.650;2023-07-29T07:34:44;100204.16;;;24.68;100.00
18918;BME280;9591;52.742;13.650;2023-07-29T07:37:31;100200.59;;;24.68;100.00
18918;BME280;9591;52.742;13.650;2023-07-29T07:40:19;100202.59;;;24.66;100.00
18918;BME280;9591;52.742;13.650;2023-07-29T07:43:07;100202.28;;;24.96;100.00
18918;BME280;9591;52.742;13.650;2023-07-29T07:45:58;100207.59;;;24.88;100.00
18918;BME280;9591;52.742;13.650;2023-07-29T07:48:45;100203.94;;;25.15;100.00
18918;BME280;9591;52.742;13.650;2023-07-29T07:51:34;100199.38;;;25.33;100.00
18918;BME280;9591;52.742;13.650;2023-07-29T07:54:22;100197.91;;;24.86;100.00
18918;BME280;9591;52.742;13.650;2023-07-29T07:57:09;100197.34;;;24.82;100.00
18918;BME280;9591;52.742;13.650;2023-07-29T07:59:56;100185.09;;;24.60;100.00
18918;BME280;9591;52.742;13.650;2023-07-29T08:02:44;100192.22;;;25.06;100.00
18918;BME280;9591;52.742;13.650;2023-07-29T08:05:30;100187.44;;;25.26;100.00
18918;BME280;9591;52.742;13.650;2023-07-29T08:08:19;100190.41;;;25.15;100.00
18918;BME280;9591;52.742;13.650;2023-07-29T08:11:07;100190.53;;;25.31;100.00
18918;BME280;9591;52.742;13.650;2023-07-29T08:13:55;100187.75;;;25.23;100.00
18918;BME280;9591;52.742;13.650;2023-07-29T08:16:42;100181.97;;;25.18;100.00
18918;BME280;9591;52.742;13.650;2023-07-29T08:19:29;100170.94;;;25.37;100.00
18918;BME280;9591;52.742;13.650;2023-07-29T08:22:16;100168.72;;;25.33;100.00
18918;BME280;9591;52.742;13.650;2023-07-29T08:25:06;100169.53;;;25.51;100.00
18918;BME280;9591;52.742;13.650;2023-07-29T08:27:52;100166.72;;;25.61;100.00
18918;BME280;9591;52.742;13.650;2023-07-29T08:30:39;100161.44;;;25.77;100.00
18918;BME280;9591;52.742;13.650;2023-07-29T08:33:27;100164.88;;;25.87;100.00
18918;BME280;9591;52.742;13.650;2023-07-29T08:36:13;100156.47;;;25.98;100.00
18918;BME280;9591;52.742;13.650;2023-07-29T08:39:00;100165.25;;;25.92;100.00
18918;BME280;9591;52.742;13.650;2023-07-29T08:41:55;100166.16;;;25.75;100.00
18918;BME280;9591;52.742;13.650;2023-07-29T08:44:45;100177.41;;;25.88;100.00
18918;BME280;9591;52.742;13.650;2023-07-29T08:47:33;100174.66;;;25.80;100.00
18918;BME280;9591;52.742;13.650;2023-07-29T08:50:20;100175.25;;;25.92;100.00
18918;BME280;9591;52.742;13.650;2023-07-29T08:53:08;100170.78;;;25.83;100.00
18918;BME280;9591;52.742;13.650;2023-07-29T08:55:55;100170.47;;;25.86;100.00
18918;BME280;9591;52.742;13.650;2023-07-29T08:58:43;100170.03;;;25.72;100.00
18918;BME280;9591;52.742;13.650;2023-07-29T09:01:30;100168.47;;;25.96;100.00
18918;BME280;9591;52.742;13.650;2023-07-29T09:04:17;100167.81;;;26.02;100.00
18918;BME280;9591;52.742;13.650;2023-07-29T09:07:05;100168.31;;;25.97;100.00
18918;BME280;9591;52.742;13.650;2023-07-29T09:09:52;100159.34;;;26.05;100.00
18918;BME280;9591;52.742;13.650;2023-07-29T09:12:40;100157.31;;;26.41;100.00
18918;BME280;9591;52.742;13.650;2023-07-29T09:15:30;100129.47;;;26.39;100.00
18918;BME280;9591;52.742;13.650;2023-07-29T09:18:20;100158.03;;;26.59;100.00
18918;BME280;9591;52.742;13.650;2023-07-29T09:21:10;100147.22;;;26.84;100.00
18918;BME280;9591;52.742;13.650;2023-07-29T09:24:07;100148.25;;;26.83;100.00
18918;BME280;9591;52.742;13.650;2023-07-29T09:26:54;100148.59;;;27.12;99.12
18918;BME280;9591;52.742;13.650;2023-07-29T09:29:41;100151.47;;;26.86;98.87
18918;BME280;9591;52.742;13.650;2023-07-29T09:32:29;100149.13;;;26.99;99.80
18918;BME280;9591;52.742;13.650;2023-07-29T09:35:16;100145.53;;;26.83;98.76
18918;BME280;9591;52.742;13.650;2023-07-29T09:38:04;100152.75;;;26.50;99.68
18918;BME280;9591;52.742;13.650;2023-07-29T09:40:55;100146.19;;;26.68;98.07
18918;BME280;9591;52.742;13.650;2023-07-29T09:43:42;100137.53;;;26.89;99.50
18918;BME280;9591;52.742;13.650;2023-07-29T09:46:33;100129.22;;;26.91;98.93
18918;BME280;9591;52.742;13.650;2023-07-29T09:49:22;100128.91;;;27.02;100.00
18918;BME280;9591;52.742;13.650;2023-07-29T09:52:10;100118.03;;;27.10;98.74
18918;BME280;9591;52.742;13.650;2023-07-29T09:54:57;100117.50;;;27.39;100.00
18918;BME280;9591;52.742;13.650;2023-07-29T09:57:44;100120.56;;;27.44;99.90
18918;BME280;9591;52.742;13.650;2023-07-29T10:00:32;100122.09;;;27.22;96.71
18918;BME280;9591;52.742;13.650;2023-07-29T10:03:21;100122.06;;;26.65;94.75
18918;BME280;9591;52.742;13.650;2023-07-29T10:06:10;100111.53;;;26.87;99.97
18918;BME280;9591;52.742;13.650;2023-07-29T10:08:59;100115.97;;;26.96;99.68
18918;BME280;9591;52.742;13.650;2023-07-29T10:11:49;100108.69;;;27.04;99.99
18918;BME280;9591;52.742;13.650;2023-07-29T10:14:39;100104.44;;;27.02;95.31
18918;BME280;9591;52.742;13.650;2023-07-29T10:17:28;100101.41;;;27.13;95.36
18918;BME280;9591;52.742;13.650;2023-07-29T10:20:16;100097.28;;;26.93;95.96
18918;BME280;9591;52.742;13.650;2023-07-29T10:23:06;100089.47;;;26.90;100.00
18918;BME280;9591;52.742;13.650;2023-07-29T10:25:57;100091.03;;;27.08;100.00
18918;BME280;9591;52.742;13.650;2023-07-29T10:28:48;100094.75;;;27.24;99.06
18918;BME280;9591;52.742;13.650;2023-07-29T10:31:40;100092.53;;;27.27;100.00
18918;BME280;9591;52.742;13.650;2023-07-29T10:34:29;100089.50;;;27.22;100.00
18918;BME280;9591;52.742;13.650;2023-07-29T10:37:16;100087.94;;;27.36;95.25
18918;BME280;9591;52.742;13.650;2023-07-29T10:40:09;100082.66;;;27.51;100.00
18918;BME280;9591;52.742;13.650;2023-07-29T10:43:00;100087.13;;;27.11;95.26
18918;BME280;9591;52.742;13.650;2023-07-29T10:45:49;100077.28;;;27.10;96.74
18918;BME280;9591;52.742;13.650;2023-07-29T10:48:56;100069.28;;;26.92;100.00
18918;BME280;9591;52.742;13.650;2023-07-29T10:51:44;100076.78;;;26.82;100.00
18918;BME280;9591;52.742;13.650;2023-07-29T10:54:42;100068.63;;;26.82;100.00
18918;BME280;9591;52.742;13.650;2023-07-29T10:57:34;100065.75;;;26.75;100.00
18918;BME280;9591;52.742;13.650;2023-07-29T11:00:21;100066.66;;;26.26;100.00
18918;BME280;9591;52.742;13.650;2023-07-29T11:03:08;100044.59;;;26.29;100.00
18918;BME280;9591;52.742;13.650;2023-07-29T11:05:55;100062.81;;;26.44;100.00
18918;BME280;9591;52.742;13.650;2023-07-29T11:08:44;100053.38;;;26.06;100.00
18918;BME280;9591;52.742;13.650;2023-07-29T11:11:32;100041.47;;;25.91;100.00
18918;BME280;9591;52.742;13.650;2023-07-29T11:14:21;100042.44;;;25.74;100.00
18918;BME280;9591;52.742;13.650;2023-07-29T11:17:08;100045.00;;;25.49;100.00
18918;BME280;9591;52.742;13.650;2023-07-29T11:19:58;100050.13;;;25.27;100.00
18918;BME280;9591;52.742;13.650;2023-07-29T11:22:49;100050.53;;;25.14;100.00
18918;BME280;9591;52.742;13.650;2023-07-29T11:25:38;100050.91;;;25.19;100.00
18918;BME280;9591;52.742;13.650;2023-07-29T11:28:25;100039.84;;;25.04;100.00
18918;BME280;9591;52.742;13.650;2023-07-29T11:31:16;100028.13;;;25.30;100.00
18918;BME280;9591;52.742;13.650;2023-07-29T11:34:07;100047.66;;;24.90;100.00
18918;BME280;9591;52.742;13.650;2023-07-29T11:36:55;100076.19;;;24.31;100.00
18918;BME280;9591;52.742;13.650;2023-07-29T11:39:45;100109.66;;;23.75;100.00
18918;BME280;9591;52.742;13.650;2023-07-29T11:42:36;100129.97;;;22.55;100.00
18918;BME280;9591;52.742;13.650;2023-07-29T11:45:25;100104.78;;;22.06;100.00
18918;BME280;9591;52.742;13.650;2023-07-29T11:48:37;100175.09;;;21.42;100.00
18918;BME280;9591;52.742;13.650;2023-07-29T11:51:26;100121.16;;;21.12;100.00
18918;BME280;9591;52.742;13.650;2023-07-29T11:54:15;100097.38;;;20.96;100.00
18918;BME280;9591;52.742;13.650;2023-07-29T11:57:08;100087.63;;;20.74;100.00
18918;BME280;9591;52.742;13.650;2023-07-29T11:59:57;100114.09;;;20.58;100.00
18918;BME280;9591;52.742;13.650;2023-07-29T12:02:45;100100.78;;;20.56;100.00
18918;BME280;9591;52.742;13.650;2023-07-29T12:05:37;100105.13;;;20.69;100.00
18918;BME280;9591;52.742;13.650;2023-07-29T12:08:26;100106.69;;;20.71;100.00
18918;BME280;9591;52.742;13.650;2023-07-29T12:11:16;100106.69;;;20.71;100.00
18918;BME280;9591;52.742;13.650;2023-07-29T12:14:07;100096.41;;;20.76;100.00
18918;BME280;9591;52.742;13.650;2023-07-29T12:16:55;100090.31;;;20.74;100.00
18918;BME280;9591;52.742;13.650;2023-07-29T12:19:43;100082.59;;;20.90;100.00
18918;BME280;9591;52.742;13.650;2023-07-29T12:22:31;100071.97;;;21.10;100.00
18918;BME280;9591;52.742;13.650;2023-07-29T12:25:18;100077.38;;;21.31;100.00
18918;BME280;9591;52.742;13.650;2023-07-29T12:28:07;100073.44;;;21.35;100.00
18918;BME280;9591;52.742;13.650;2023-07-29T12:30:54;100076.63;;;21.49;100.00
18918;BME280;9591;52.742;13.650;2023-07-29T12:33:42;100073.75;;;21.41;100.00
18918;BME280;9591;52.742;13.650;2023-07-29T12:36:42;100077.16;;;21.43;100.00
18918;BME280;9591;52.742;13.650;2023-07-29T12:39:33;100074.06;;;21.48;100.00
18918;BME280;9591;52.742;13.650;2023-07-29T12:42:22;100075.28;;;21.65;100.00
18918;BME280;9591;52.742;13.650;2023-07-29T12:45:12;100065.47;;;22.04;100.00
18918;BME280;9591;52.742;13.650;2023-07-29T12:48:01;100060.78;;;22.06;100.00
18918;BME280;9591;52.742;13.650;2023-07-29T12:50:49;100074.00;;;22.09;100.00
18918;BME280;9591;52.742;13.650;2023-07-29T12:53:37;100069.38;;;22.40;100.00
18918;BME280;9591;52.742;13.650;2023-07-29T12:56:25;100075.03;;;22.56;100.00
18918;BME280;9591;52.742;13.650;2023-07-29T12:59:13;100071.03;;;22.70;100.00
18918;BME280;9591;52.742;13.650;2023-07-29T13:02:06;100066.78;;;22.67;100.00
18918;BME280;9591;52.742;13.650;2023-07-29T13:05:03;100069.50;;;22.86;100.00
18918;BME280;9591;52.742;13.650;2023-07-29T13:07:50;100064.06;;;23.06;100.00
18918;BME280;9591;52.742;13.650;2023-07-29T13:10:37;100064.63;;;23.09;100.00
18918;BME280;9591;52.742;13.650;2023-07-29T13:13:26;100065.63;;;23.08;100.00
18918;BME280;9591;52.742;13.650;2023-07-29T13:16:13;100068.72;;;23.33;100.00
18918;BME280;9591;52.742;13.650;2023-07-29T13:19:02;100066.91;;;23.61;100.00
18918;BME280;9591;52.742;13.650;2023-07-29T13:21:49;100059.50;;;23.90;100.00
18918;BME280;9591;52.742;13.650;2023-07-29T13:24:36;100062.91;;;23.92;100.00
18918;BME280;9591;52.742;13.650;2023-07-29T13:27:23;100070.84;;;24.21;100.00
18918;BME280;9591;52.742;13.650;2023-07-29T13:30:12;100070.03;;;24.38;100.00
18918;BME280;9591;52.742;13.650;2023-07-29T13:32:59;100077.91;;;24.49;100.00
18918;BME280;9591;52.742;13.650;2023-07-29T13:35:46;100027.50;;;24.13;100.00
18918;BME280;9591;52.742;13.650;2023-07-29T13:38:33;100070.34;;;24.71;100.00
18918;BME280;9591;52.742;13.650;2023-07-29T13:41:20;100079.84;;;24.57;100.00
18918;BME280;9591;52.742;13.650;2023-07-29T13:44:07;100077.84;;;24.59;100.00
18918;BME280;9591;52.742;13.650;2023-07-29T13:46:55;100070.56;;;24.60;100.00
18918;BME280;9591;52.742;13.650;2023-07-29T13:49:42;100063.38;;;24.68;100.00
18918;BME280;9591;52.742;13.650;2023-07-29T13:52:29;100052.25;;;24.36;100.00
18918;BME280;9591;52.742;13.650;2023-07-29T13:55:16;100058.09;;;24.31;100.00
18918;BME280;9591;52.742;13.650;2023-07-29T13:58:03;100055.66;;;24.38;100.00
18918;BME280;9591;52.742;13.650;2023-07-29T14:00:49;100055.19;;;24.60;100.00
18918;BME280;9591;52.742;13.650;2023-07-29T14:03:38;100051.13;;;24.82;100.00
18918;BME280;9591;52.742;13.650;2023-07-29T14:06:25;100047.50;;;25.17;100.00
18918;BME280;9591;52.742;13.650;2023-07-29T14:09:28;100044.97;;;25.15;100.00
18918;BME280;9591;52.742;13.650;2023-07-29T14:12:15;100033.97;;;25.17;100.00
18918;BME280;9591;52.742;13.650;2023-07-29T14:15:05;100036.53;;;25.53;100.00
18918;BME280;9591;52.742;13.650;2023-07-29T14:17:52;100031.91;;;25.71;100.00
18918;BME280;9591;52.742;13.650;2023-07-29T14:20:40;100031.28;;;25.85;100.00
18918;BME280;9591;52.742;13.650;2023-07-29T14:23:28;100024.84;;;25.86;100.00
18918;BME280;9591;52.742;13.650;2023-07-29T14:26:16;100030.78;;;25.90;100.00
18918;BME280;9591;52.742;13.650;2023-07-29T14:29:02;100034.22;;;26.00;100.00